Share

Rayle, GA

APRSWXNET Lexington GA US (MC2074) Elev 728 ft | 33.87 °N, 83.11 °W | Change Station

Current weather conditions updated 37 minutes ago

Clear
Clear
66 °F
Feels Like 66 °F
N
0
Wind Variable Wind from NNE
Gusts 4.0 mph
Sunrise 6:53 AM
Sunset 8:07 PM
Moon Waning Gibbous

Today is forecast to be nearly the same temperature as yesterday.

Pressure 30.13 in
Visibility 10.0 miles
Clouds Clear
Dew Point 44 °F
Humidity 45%
Rainfall 0.00 in
Snow Depth Not available.
UV 10 out of 16
Pollen 8.90 out of 12
Air Quality Not available.
Flu Activity Sporadic
METAR K3J7 211555Z AUTO 00000KT 10SM CLR 19/06 A3013 RMK AO2

More Conditions Fewer Conditions

Pressure 30.13 in
Visibility 10.0 miles
Clouds Clear
Dew Point 44 °F
Humidity 45%
Rainfall 0.00 in
Snow Depth Not available.
UV 10 out of 16
Pollen 8.90 out of 12
Air Quality Not available.
Flu Activity Sporadic
METAR K3J7 211555Z AUTO 00000KT 10SM CLR 19/06 A3013 RMK AO2

More Conditions Fewer Conditions

10-Day Weather Forecast

Almanac

Astronomy

Apr. 21, 2014 Rise Set
Actual Time 6:53 AM EDT 8:07 PM EDT
Civil Twilight 6:27 AM EDT 8:33 PM EDT
Nautical Twilight 5:56 AM EDT 9:04 PM EDT
Astronomical Twilight 5:24 AM EDT 9:36 PM EDT
Moon 1:32 AM EDT 12:22 PM EDT
Length of Visible Light 14h 05m
Length of Day
13h 13m
Tomorrow will be 1m 55s longer.
Waning Gibbous, 58% of the Moon is Illuminated
Today
Waning Gibbous
Apr 22
Last Quarter
Apr 29
New
May 6
First Quarter
May 14
Full

Today's Extremes

State Highs State Lows

Community

  • Bright Eyes
    Bright Eyes
  • Snowy Robin
    Snowy Robin
  • Spring Crocus
    Spring Crocus
  • Sun Pillar and Geese
    Sun Pillar and Geese
  • Showers on the Way
    Showers on the Way

WunderPhotos

Upload Photos

1,703,678 photos uploaded!

Nearby

Snow Depth

Station Depth Elevation
No new snow has been reported.

Coastal Water Temperatures

Place Temperature
No Stations Reporting

Earthquake Activity

City Distance Mag. Time & Date
No recent earthquake activity has been reported nearby.
Minimum magnitude displayed is 2.5.

Nearby Weather Stations

Station Location Temp. Dew Point Humidity Wind Precip. Elev Updated Type
RAWS WASHINGTON GA, Tignall, GA 65 °F 42 °F 43% NE  at  4 mph 0.00 in / hr 616 ft 11:02 AM EDT MADIS
APRSWXNET Lexington GA , Lexington, GA 66 °F 44 °F 45% NNE  at  0 mph 0.00 in / hr 728 ft 11:33 AM EDT MADIS
Deerlick Astronomy Village, Sharon, GA 67.1 °F 46 °F 47% North  at  5.0 mph 0.00 in / hr 558 ft 12:10 PM EDT Normal
Lincoln County Board of Education, Lincolnton, GA 66.3 °F 44 °F 45% SSE  at  0.0 mph 0.00 in / hr 443 ft 12:10 PM EDT Rapid Fire
Wyndfield, Athens-Clarke County, GA 69.0 °F 46 °F 44% SW  at  0.0 mph 0.00 in / hr 647 ft 12:10 PM EDT Rapid Fire
RAWS DYAR PASTURE GA, Buckhead, GA 67 °F 42 °F 40% ENE  at  3 mph 0.00 in / hr 480 ft 11:19 AM EDT MADIS

Show More Stations Show Fewer Stations

What do you think?

We're not finished. Please let us know what you like, what you don't like, and what you are still missing.